createdAt,value
2023-01-02T00:01:31.497Z,11.78
2023-01-02T00:03:58.876Z,11.65
2023-01-02T00:06:26.484Z,11.29
2023-01-02T00:08:53.680Z,11.37
2023-01-02T00:11:20.817Z,11.33
2023-01-02T00:13:47.969Z,11.40
2023-01-02T00:16:15.122Z,11.37
2023-01-02T00:18:42.321Z,11.10
2023-01-02T00:21:09.491Z,11.01
2023-01-02T00:23:36.857Z,10.99
2023-01-02T00:26:04.389Z,10.98
2023-01-02T00:28:31.835Z,10.94
2023-01-02T00:31:04.929Z,10.88
2023-01-02T00:33:32.370Z,10.88
2023-01-02T00:36:02.943Z,10.89
2023-01-02T00:38:30.041Z,10.85
2023-01-02T00:40:57.173Z,10.95
2023-01-02T00:43:24.374Z,10.76
2023-01-02T00:45:51.553Z,10.79
2023-01-02T00:48:18.704Z,10.83
2023-01-02T00:50:46.058Z,10.85
2023-01-02T00:53:13.151Z,10.64
2023-01-02T00:55:40.262Z,10.67
2023-01-02T00:58:07.419Z,10.76
2023-01-02T01:00:34.581Z,10.84
2023-01-02T01:03:02.088Z,10.90
2023-01-02T01:05:29.688Z,10.96
2023-01-02T01:07:58.069Z,10.95
2023-01-02T01:10:26.806Z,10.91
2023-01-02T01:12:54.053Z,10.94
2023-01-02T01:15:21.343Z,11.06
2023-01-02T01:17:48.459Z,11.14
2023-01-02T01:20:15.628Z,11.14
2023-01-02T01:22:42.817Z,11.19
2023-01-02T01:25:10.269Z,11.07
2023-01-02T01:27:37.606Z,11.05
2023-01-02T01:30:07.109Z,11.03
2023-01-02T01:32:34.914Z,11.03
2023-01-02T01:35:02.194Z,11.05
2023-01-02T01:37:29.417Z,10.99
2023-01-02T01:39:57.063Z,10.85
2023-01-02T01:42:24.810Z,10.77
2023-01-02T01:44:55.050Z,10.75
2023-01-02T01:47:40.175Z,10.68
2023-01-02T01:50:27.648Z,10.64
2023-01-02T01:53:08.217Z,10.67
2023-01-02T01:55:42.136Z,10.56
2023-01-02T01:58:15.168Z,10.67
2023-01-02T02:00:43.641Z,10.76
2023-01-02T02:03:21.820Z,10.77
2023-01-02T02:05:49.363Z,10.74
2023-01-02T02:08:36.552Z,10.66
2023-01-02T02:11:06.079Z,10.74
2023-01-02T02:13:34.170Z,10.74
2023-01-02T02:16:16.309Z,10.79
2023-01-02T02:19:55.671Z,10.74
2023-01-02T02:23:38.080Z,10.58
2023-01-02T02:27:15.985Z,10.72
2023-01-02T02:30:12.013Z,10.73
2023-01-02T02:32:53.394Z,10.70
2023-01-02T02:36:04.156Z,10.85
2023-01-02T02:38:50.798Z,10.78
2023-01-02T02:41:45.988Z,10.82
2023-01-02T02:44:35.854Z,10.84
2023-01-02T02:47:16.104Z,10.80
2023-01-02T02:49:56.940Z,10.81
2023-01-02T02:52:35.080Z,11.02
2023-01-02T02:55:11.918Z,10.80
2023-01-02T02:57:42.578Z,10.95
2023-01-02T03:00:17.113Z,11.02
2023-01-02T03:02:44.411Z,11.19
2023-01-02T03:05:31.340Z,11.16
2023-01-02T03:08:24.013Z,10.92
2023-01-02T03:11:01.299Z,11.16
2023-01-02T03:14:07.592Z,11.06
2023-01-02T03:16:42.159Z,10.96
2023-01-02T03:19:32.048Z,11.18
2023-01-02T03:22:21.643Z,11.14
2023-01-02T03:24:55.333Z,10.91
2023-01-02T03:27:30.193Z,11.04
2023-01-02T03:30:22.420Z,10.98
2023-01-02T03:33:19.804Z,11.23
2023-01-02T03:35:54.281Z,11.27
2023-01-02T03:38:52.644Z,11.43
2023-01-02T03:41:36.017Z,11.53
2023-01-02T03:44:07.663Z,11.57
2023-01-02T03:47:04.013Z,11.73
2023-01-02T03:49:37.332Z,11.89
2023-01-02T03:52:04.905Z,11.91
2023-01-02T03:54:32.376Z,11.93
2023-01-02T03:57:28.547Z,11.95
2023-01-02T04:00:17.277Z,12.09
2023-01-02T04:03:22.487Z,12.08
2023-01-02T04:06:09.417Z,12.08
2023-01-02T04:09:12.119Z,12.23
2023-01-02T04:11:46.722Z,12.19
2023-01-02T04:14:32.630Z,12.24
2023-01-02T04:17:02.181Z,12.23
2023-01-02T04:19:56.860Z,12.20
2023-01-02T04:22:41.910Z,12.19
2023-01-02T04:25:18.510Z,12.19
2023-01-02T04:27:57.598Z,12.19
2023-01-02T04:30:27.060Z,12.27
2023-01-02T04:32:56.713Z,12.27
2023-01-02T04:35:25.040Z,12.28
2023-01-02T04:37:52.285Z,12.24
2023-01-02T04:40:30.577Z,12.30
2023-01-02T04:42:58.339Z,12.32
2023-01-02T04:45:25.465Z,12.33
2023-01-02T04:47:52.544Z,12.39
2023-01-02T04:50:19.896Z,12.39
2023-01-02T04:52:46.944Z,12.39
2023-01-02T04:55:14.223Z,12.43
2023-01-02T04:57:41.383Z,12.48
2023-01-02T05:00:10.044Z,12.47
2023-01-02T05:02:39.464Z,12.56
2023-01-02T05:05:09.231Z,12.51
2023-01-02T05:07:39.641Z,12.49
2023-01-02T05:10:08.277Z,12.53
2023-01-02T05:12:37.558Z,12.53
2023-01-02T05:15:08.376Z,12.52
2023-01-02T05:17:42.257Z,12.58
2023-01-02T05:20:13.350Z,12.54
2023-01-02T05:23:02.795Z,12.61
2023-01-02T05:25:35.660Z,12.68
2023-01-02T05:28:04.504Z,12.63
2023-01-02T05:30:31.707Z,12.67
2023-01-02T05:32:58.847Z,12.69
2023-01-02T05:35:32.092Z,12.66
2023-01-02T05:37:59.943Z,12.68
2023-01-02T05:40:27.079Z,12.71
2023-01-02T05:42:58.169Z,12.63
2023-01-02T05:45:27.005Z,12.68
2023-01-02T05:47:54.217Z,12.65
2023-01-02T05:50:21.320Z,12.57
2023-01-02T05:52:48.374Z,12.54
2023-01-02T05:55:15.637Z,12.56
2023-01-02T05:57:42.831Z,12.64
2023-01-02T06:00:11.291Z,12.67
2023-01-02T06:02:38.438Z,12.66
2023-01-02T06:05:06.545Z,12.69
2023-01-02T06:07:33.870Z,12.68
2023-01-02T06:10:00.914Z,12.74
2023-01-02T06:12:27.957Z,12.71
2023-01-02T06:14:54.985Z,12.72
2023-01-02T06:17:22.582Z,12.66
2023-01-02T06:19:53.938Z,12.65
2023-01-02T06:22:21.422Z,12.67
2023-01-02T06:24:48.533Z,12.67
2023-01-02T06:27:15.622Z,12.59
2023-01-02T06:29:42.658Z,12.63
2023-01-02T06:32:09.677Z,12.66
2023-01-02T06:34:36.681Z,12.62
2023-01-02T06:37:09.544Z,12.64
2023-01-02T06:39:37.758Z,12.66
2023-01-02T06:42:07.214Z,12.69
2023-01-02T06:44:34.678Z,12.68
2023-01-02T06:47:01.684Z,12.74
2023-01-02T06:49:28.813Z,12.71
2023-01-02T06:51:55.806Z,12.70
2023-01-02T06:54:22.856Z,12.73
2023-01-02T06:56:49.836Z,12.76
2023-01-02T06:59:17.103Z,12.79
2023-01-02T07:01:44.399Z,12.84
2023-01-02T07:04:16.904Z,12.87
2023-01-02T07:06:44.061Z,12.86
2023-01-02T07:09:11.228Z,12.85
2023-01-02T07:11:39.402Z,12.90
2023-01-02T07:14:08.982Z,12.92
2023-01-02T07:16:36.170Z,12.90
2023-01-02T07:19:03.316Z,12.92
2023-01-02T07:21:31.209Z,12.94
2023-01-02T07:23:58.330Z,13.02
2023-01-02T07:26:25.328Z,13.11
2023-01-02T07:28:52.449Z,13.09
2023-01-02T07:31:21.172Z,13.03
2023-01-02T07:33:49.478Z,13.09
2023-01-02T07:36:22.530Z,13.25
2023-01-02T07:38:57.551Z,13.22
2023-01-02T07:41:26.229Z,13.17
2023-01-02T07:43:58.339Z,13.27
2023-01-02T07:46:25.965Z,13.30
2023-01-02T07:48:53.373Z,13.32
2023-01-02T07:51:26.602Z,13.25
2023-01-02T07:53:55.272Z,13.26
2023-01-02T07:56:22.474Z,13.24
2023-01-02T07:58:50.393Z,13.28
2023-01-02T08:01:20.849Z,13.29
2023-01-02T08:03:48.526Z,13.33
2023-01-02T08:06:18.044Z,13.45
2023-01-02T08:08:45.682Z,13.47
2023-01-02T08:11:21.126Z,13.49
2023-01-02T08:13:49.272Z,13.61
2023-01-02T08:16:20.463Z,13.60
2023-01-02T08:18:53.803Z,13.57
2023-01-02T08:21:22.417Z,13.61
2023-01-02T08:23:49.570Z,13.69
2023-01-02T08:26:17.079Z,13.71
2023-01-02T08:28:44.726Z,13.80
2023-01-02T08:31:20.549Z,13.85
2023-01-02T08:33:47.872Z,13.83
2023-01-02T08:36:15.033Z,13.88
2023-01-02T08:38:43.026Z,13.95
2023-01-02T08:41:10.292Z,13.95
2023-01-02T08:43:38.347Z,14.04
2023-01-02T08:46:08.435Z,14.09
2023-01-02T08:48:36.744Z,14.04
2023-01-02T08:51:05.602Z,14.12
2023-01-02T08:53:32.714Z,14.18
2023-01-02T08:56:29.349Z,14.12
2023-01-02T08:59:10.003Z,14.15
2023-01-02T09:01:38.536Z,14.20
2023-01-02T09:04:11.994Z,14.25
2023-01-02T09:06:42.405Z,14.22
2023-01-02T09:09:13.112Z,14.35
2023-01-02T09:11:50.290Z,14.36
2023-01-02T09:14:20.916Z,14.30
2023-01-02T09:16:49.842Z,14.44
2023-01-02T09:19:17.565Z,14.43
2023-01-02T09:21:44.904Z,14.51
2023-01-02T09:24:13.250Z,14.52
2023-01-02T09:26:41.834Z,14.46
2023-01-02T09:29:11.829Z,14.57
2023-01-02T09:31:40.559Z,14.58
2023-01-02T09:36:35.565Z,14.66
2023-01-02T09:39:04.328Z,14.71
2023-01-02T09:42:00.129Z,14.71
2023-01-02T09:44:44.513Z,14.73
2023-01-02T09:47:11.354Z,14.72
2023-01-02T09:50:00.680Z,14.81
2023-01-02T09:52:45.720Z,14.95
2023-01-02T09:55:43.289Z,14.87
2023-01-02T09:58:41.265Z,14.87
2023-01-02T10:01:22.256Z,14.95
2023-01-02T10:04:26.124Z,14.98
2023-01-02T10:07:37.102Z,15.07
2023-01-02T10:10:12.903Z,15.09
2023-01-02T10:12:54.895Z,15.21
2023-01-02T10:15:29.197Z,15.22
2023-01-02T10:18:29.910Z,15.17
2023-01-02T10:21:15.552Z,15.23
2023-01-02T10:24:11.100Z,15.34
2023-01-02T10:26:44.388Z,15.31
2023-01-02T10:29:33.745Z,15.39
2023-01-02T10:32:19.676Z,15.36
2023-01-02T10:35:22.314Z,15.34
2023-01-02T10:37:49.623Z,15.35
2023-01-02T10:40:16.830Z,15.37
2023-01-02T10:42:44.601Z,15.35
2023-01-02T10:45:17.413Z,15.30
2023-01-02T10:47:44.958Z,15.34
2023-01-02T10:50:25.594Z,15.32
2023-01-02T10:53:09.974Z,15.32
2023-01-02T10:55:43.677Z,15.30
2023-01-02T10:58:32.461Z,15.29
2023-01-02T11:01:14.307Z,15.27
2023-01-02T11:03:41.501Z,15.26
2023-01-02T11:06:38.999Z,15.35
2023-01-02T11:09:22.513Z,15.41
2023-01-02T11:12:09.050Z,15.45
2023-01-02T11:14:38.371Z,15.45
2023-01-02T11:17:24.989Z,15.47
2023-01-02T11:19:56.571Z,15.40
2023-01-02T11:22:36.081Z,15.27
2023-01-02T11:25:43.002Z,15.24
2023-01-02T11:28:29.497Z,15.13
2023-01-02T11:31:14.126Z,15.02
2023-01-02T11:33:41.686Z,14.91
2023-01-02T11:36:11.579Z,14.87
2023-01-02T11:38:53.895Z,14.83
2023-01-02T11:41:56.117Z,14.86
2023-01-02T11:44:44.324Z,14.84
2023-01-02T11:47:13.509Z,14.89
2023-01-02T11:49:49.292Z,14.84
2023-01-02T11:52:30.733Z,14.82
2023-01-02T11:55:37.344Z,14.77
2023-01-02T11:58:36.231Z,14.73
2023-01-02T12:01:38.172Z,14.77
2023-01-02T12:04:05.961Z,14.77
2023-01-02T12:07:08.927Z,14.75
2023-01-02T12:10:08.712Z,14.64
2023-01-02T12:12:45.990Z,14.69
2023-01-02T12:16:11.299Z,14.73
2023-01-02T12:19:12.205Z,14.72
2023-01-02T12:22:07.152Z,14.74
2023-01-02T12:25:11.310Z,14.69
2023-01-02T12:28:12.564Z,14.64
2023-01-02T12:31:00.915Z,14.58
2023-01-02T12:34:07.728Z,14.58
2023-01-02T12:36:59.862Z,14.59
2023-01-02T12:40:02.218Z,14.56
2023-01-02T12:43:13.131Z,14.48
2023-01-02T12:46:20.139Z,14.41
2023-01-02T12:49:28.056Z,14.41
2023-01-02T12:52:34.334Z,14.42
2023-01-02T12:55:58.021Z,14.42
2023-01-02T12:58:52.979Z,14.39
2023-01-02T13:01:59.849Z,14.39
2023-01-02T13:04:54.792Z,14.26
2023-01-02T13:07:55.898Z,14.22
2023-01-02T13:10:28.800Z,14.25
2023-01-02T13:13:00.596Z,14.23
2023-01-02T13:15:36.270Z,14.26
2023-01-02T13:18:37.565Z,14.22
2023-01-02T13:21:44.123Z,14.22
2023-01-02T13:24:16.620Z,14.29
2023-01-02T13:26:44.612Z,14.30
2023-01-02T13:29:11.633Z,14.33
2023-01-02T13:31:49.033Z,14.34
2023-01-02T13:34:28.781Z,14.25
2023-01-02T13:37:19.097Z,14.20
2023-01-02T13:39:59.486Z,14.24
2023-01-02T13:42:55.102Z,14.22
2023-01-02T13:45:31.115Z,14.35
2023-01-02T13:48:07.430Z,14.35
2023-01-02T13:50:38.788Z,14.30
2023-01-02T13:53:11.869Z,14.35
2023-01-02T13:55:41.880Z,14.30
2023-01-02T13:58:15.206Z,14.34
2023-01-02T14:00:55.727Z,14.32
2023-01-02T14:03:23.496Z,14.37
2023-01-02T14:06:01.403Z,14.39
2023-01-02T14:09:04.566Z,14.35
2023-01-02T14:12:03.056Z,14.25
2023-01-02T14:14:46.253Z,14.30
2023-01-02T14:18:11.824Z,14.20
2023-01-02T14:20:44.824Z,14.17
2023-01-02T14:23:31.690Z,14.22
2023-01-02T14:25:59.212Z,14.25
2023-01-02T14:28:36.091Z,14.16
2023-01-02T14:31:32.176Z,14.16
2023-01-02T14:34:00.320Z,14.15
2023-01-02T14:36:47.099Z,14.13
2023-01-02T14:39:35.468Z,14.19
2023-01-02T14:42:44.737Z,14.16
2023-01-02T14:45:19.735Z,14.14
2023-01-02T14:47:58.715Z,14.25
2023-01-02T14:50:33.352Z,14.22
2023-01-02T14:53:20.209Z,14.19
2023-01-02T14:55:49.440Z,14.23
2023-01-02T14:58:41.827Z,14.23
2023-01-02T15:01:13.025Z,14.28
2023-01-02T15:04:25.972Z,14.20
2023-01-02T15:07:37.528Z,14.11
2023-01-02T15:10:22.702Z,14.10
2023-01-02T15:13:05.248Z,14.07
2023-01-02T15:15:53.728Z,14.03
2023-01-02T15:18:33.674Z,13.99
2023-01-02T15:21:10.667Z,14.01
2023-01-02T15:23:47.633Z,14.06
2023-01-02T15:26:34.818Z,14.01
2023-01-02T15:29:26.946Z,14.06
2023-01-02T15:31:59.775Z,14.08
2023-01-02T15:34:33.522Z,14.21
2023-01-02T15:37:07.606Z,14.09
2023-01-02T15:39:41.091Z,14.08
2023-01-02T15:42:31.028Z,13.96
2023-01-02T15:45:10.596Z,13.83
2023-01-02T15:47:51.022Z,13.83
2023-01-02T15:50:29.148Z,13.88
2023-01-02T15:53:07.467Z,13.78
2023-01-02T15:55:40.635Z,13.76
2023-01-02T15:58:16.489Z,13.74
2023-01-02T16:00:46.296Z,13.60
2023-01-02T16:04:01.966Z,13.59
2023-01-02T16:06:41.256Z,13.47
2023-01-02T16:09:34.041Z,13.48
2023-01-02T16:12:04.144Z,13.44
2023-01-02T16:14:46.761Z,13.49
2023-01-02T16:17:32.736Z,13.49
2023-01-02T16:20:07.521Z,13.44
2023-01-02T16:22:57.729Z,13.39
2023-01-02T16:25:35.569Z,13.40
2023-01-02T16:28:34.626Z,13.33
2023-01-02T16:31:08.122Z,13.24
2023-01-02T16:33:35.503Z,13.27
2023-01-02T16:36:05.549Z,13.14
2023-01-02T16:38:51.715Z,13.05
2023-01-02T16:41:35.393Z,13.05
2023-01-02T16:44:12.308Z,12.99
2023-01-02T16:46:45.068Z,12.88
2023-01-02T16:49:19.415Z,12.84
2023-01-02T16:51:53.071Z,12.83
2023-01-02T16:54:21.091Z,12.87
2023-01-02T16:56:49.864Z,12.77
2023-01-02T16:59:17.079Z,12.82
2023-01-02T17:01:44.204Z,12.78
2023-01-02T17:04:15.212Z,12.75
2023-01-02T17:06:42.429Z,12.68
2023-01-02T17:09:09.623Z,12.60
2023-01-02T17:11:59.949Z,12.57
2023-01-02T17:14:30.415Z,12.54
2023-01-02T17:16:58.914Z,12.45
2023-01-02T17:19:26.377Z,12.42
2023-01-02T17:21:53.626Z,12.39
2023-01-02T17:24:20.910Z,12.40
2023-01-02T17:26:48.067Z,12.41
2023-01-02T17:29:15.322Z,12.33
2023-01-02T17:31:42.604Z,12.34
2023-01-02T17:34:09.772Z,12.31
2023-01-02T17:36:37.070Z,12.28
2023-01-02T17:39:04.336Z,12.09
2023-01-02T17:41:31.504Z,12.01
2023-01-02T17:44:02.559Z,11.91
2023-01-02T17:49:21.042Z,12.03
2023-01-02T17:51:48.211Z,11.97
2023-01-02T17:54:15.784Z,12.06
2023-01-02T17:56:43.218Z,11.83
2023-01-02T17:59:10.541Z,11.83
2023-01-02T18:01:37.880Z,11.81
2023-01-02T18:04:05.378Z,11.74
2023-01-02T18:06:32.906Z,11.76
2023-01-02T18:08:59.999Z,11.78
2023-01-02T18:11:27.304Z,11.68
2023-01-02T18:13:56.301Z,11.75
2023-01-02T18:16:40.443Z,11.68
2023-01-02T18:19:22.436Z,11.76
2023-01-02T18:21:50.784Z,11.71
2023-01-02T18:24:30.714Z,11.69
2023-01-02T18:27:32.548Z,11.74
2023-01-02T18:30:25.777Z,11.66
2023-01-02T18:33:12.456Z,11.56
2023-01-02T18:35:58.503Z,11.56
2023-01-02T18:38:39.598Z,11.58
2023-01-02T18:41:28.020Z,11.51
2023-01-02T18:44:27.507Z,11.52
2023-01-02T18:47:14.965Z,11.58
2023-01-02T18:49:44.025Z,11.55
2023-01-02T18:52:10.950Z,11.50
2023-01-02T18:54:46.737Z,11.51
2023-01-02T18:57:21.410Z,11.49
2023-01-02T18:59:51.807Z,11.53
2023-01-02T19:03:03.310Z,11.53
2023-01-02T19:05:39.656Z,11.44
2023-01-02T19:08:22.968Z,11.46
2023-01-02T19:10:58.753Z,11.56
2023-01-02T19:13:35.273Z,11.51
2023-01-02T19:16:25.734Z,11.45
2023-01-02T19:18:56.156Z,11.43
2023-01-02T19:21:31.899Z,11.48
2023-01-02T19:24:04.597Z,11.45
2023-01-02T19:26:48.279Z,11.46
2023-01-02T19:29:33.311Z,11.37
2023-01-02T19:32:03.082Z,11.27
2023-01-02T19:34:55.199Z,11.20
2023-01-02T19:37:40.763Z,11.30
2023-01-02T19:40:19.313Z,11.32
2023-01-02T19:42:51.687Z,11.34
2023-01-02T19:45:26.276Z,11.21
2023-01-02T19:47:54.316Z,11.27
2023-01-02T19:50:26.709Z,11.21
2023-01-02T19:52:54.378Z,11.23
2023-01-02T19:55:21.709Z,11.02
2023-01-02T19:57:48.879Z,11.09
2023-01-02T20:00:19.499Z,11.09
2023-01-02T20:02:52.369Z,11.12
2023-01-02T20:05:22.546Z,11.13
2023-01-02T20:07:53.112Z,11.10
2023-01-02T20:10:22.091Z,11.10
2023-01-02T20:12:49.955Z,11.10
2023-01-02T20:15:25.009Z,11.03
2023-01-02T20:17:53.958Z,11.05
2023-01-02T20:20:26.204Z,11.01
2023-01-02T20:22:54.929Z,10.89
2023-01-02T20:25:26.079Z,10.89
2023-01-02T20:27:56.774Z,10.86
2023-01-02T20:30:25.258Z,10.90
2023-01-02T20:32:54.301Z,10.80
2023-01-02T20:35:22.426Z,10.66
2023-01-02T20:37:52.003Z,10.75
2023-01-02T20:40:19.300Z,10.82
2023-01-02T20:42:46.476Z,10.62
2023-01-02T20:45:13.573Z,10.79
2023-01-02T20:47:40.708Z,10.68
2023-01-02T20:50:09.287Z,10.72
2023-01-02T20:52:36.534Z,10.81
2023-01-02T20:55:03.988Z,10.73
2023-01-02T20:57:31.191Z,10.75
2023-01-02T20:59:58.411Z,10.67
2023-01-02T21:02:27.851Z,10.74
2023-01-02T21:04:55.506Z,10.68
2023-01-02T21:07:22.670Z,10.59
2023-01-02T21:09:49.859Z,10.53
2023-01-02T21:12:35.738Z,10.54
2023-01-02T21:15:02.941Z,10.53
2023-01-02T21:17:30.254Z,10.30
2023-01-02T21:19:57.598Z,10.44
2023-01-02T21:22:24.848Z,10.33
2023-01-02T21:24:52.103Z,10.49
2023-01-02T21:27:19.274Z,10.36
2023-01-02T21:29:46.613Z,10.40
2023-01-02T21:32:13.798Z,10.50
2023-01-02T21:34:40.842Z,10.38
2023-01-02T21:37:08.139Z,10.41
2023-01-02T21:39:35.331Z,10.34
2023-01-02T21:42:17.724Z,10.28
2023-01-02T21:44:47.415Z,10.26
2023-01-02T21:47:16.841Z,10.34
2023-01-02T21:49:44.871Z,10.35
2023-01-02T21:52:12.250Z,10.31
2023-01-02T21:54:39.444Z,10.27
2023-01-02T21:57:06.703Z,10.23
2023-01-02T21:59:34.617Z,10.23
2023-01-02T22:02:04.023Z,10.29
2023-01-02T22:04:31.582Z,10.25
2023-01-02T22:09:45.965Z,10.03
2023-01-02T22:12:13.249Z,10.11
2023-01-02T22:14:40.380Z,10.13
2023-01-02T22:17:10.523Z,10.12
2023-01-02T22:19:38.679Z,10.13
2023-01-02T22:22:06.035Z,10.07
2023-01-02T22:24:36.588Z,10.09
2023-01-02T22:27:09.965Z,9.95
2023-01-02T22:30:18.580Z,10.09
2023-01-02T22:32:24.642Z,10.04
2023-01-02T22:34:52.644Z,10.05
2023-01-02T22:37:22.985Z,10.09
2023-01-02T22:39:51.044Z,10.13
2023-01-02T22:43:04.779Z,10.04
2023-01-02T22:45:49.706Z,10.04
2023-01-02T22:48:26.597Z,9.99
2023-01-02T22:50:58.420Z,9.95
2023-01-02T22:53:36.668Z,9.97
2023-01-02T22:56:20.418Z,9.90
2023-01-02T22:58:49.676Z,9.90
2023-01-02T23:01:42.343Z,9.94
2023-01-02T23:04:20.533Z,9.91
2023-01-02T23:07:13.997Z,9.92
2023-01-02T23:09:38.896Z,9.94
2023-01-02T23:12:06.380Z,9.79
2023-01-02T23:14:33.559Z,9.52
2023-01-02T23:17:19.360Z,9.78
2023-01-02T23:19:46.640Z,9.82
2023-01-02T23:22:13.728Z,9.82
2023-01-02T23:24:40.947Z,9.89
2023-01-02T23:27:12.105Z,9.85
2023-01-02T23:29:40.859Z,9.89
2023-01-02T23:32:10.392Z,9.89
2023-01-02T23:34:37.914Z,9.90
2023-01-02T23:37:05.368Z,9.87
2023-01-02T23:39:34.732Z,9.85
2023-01-02T23:42:02.666Z,9.82
2023-01-02T23:44:29.806Z,9.79
2023-01-02T23:46:57.371Z,9.77
2023-01-02T23:49:24.881Z,9.80
2023-01-02T23:51:53.808Z,9.70
2023-01-02T23:54:21.612Z,9.59
2023-01-02T23:56:51.241Z,9.57
2023-01-02T23:59:24.115Z,9.61
